Observation data for Wolfforth on 06/24/2019      Previous  Date  Next       Current Mesonet Observations  Soil Data  Daily Summary Page  Observations in Plain Language
KWOS 240500Z 33006KT 22/02 A2992 RMK A01 T02200022  RH  028%=      5-min Rain = 0
KWOS 240505Z 33005KT 22/02 A2992 RMK A01 T02150024  RH  029%=      5-min Rain = 0
KWOS 240510Z 31003KT 21/02 A2992 RMK A01 T02130023  RH  029%=      5-min Rain = 0
KWOS 240515Z 34003KT 21/02 A2992 RMK A01 T02110023  RH  029%=      5-min Rain = 0
KWOS 240520Z 36003KT 21/03 A2992 RMK A01 T02100027  RH  030%=      5-min Rain = 0
KWOS 240525Z 33003KT 21/03 A2992 RMK A01 T02080029  RH  031%=      5-min Rain = 0
KWOS 240530Z 34002KT 21/03 A2993 RMK A01 T02070029  RH  031%=      5-min Rain = 0
KWOS 240535Z 31003KT 21/03 A2993 RMK A01 T02070031  RH  032%=      5-min Rain = 0
KWOS 240540Z 30002KT 21/03 A2993 RMK A01 T02060030  RH  032%=      5-min Rain = 0
KWOS 240545Z 29002KT 21/03 A2993 RMK A01 T02050029  RH  032%=      5-min Rain = 0
KWOS 240550Z 08005G15KT 21/03 A2993 RMK A01 T02080031  RH  032%=      5-min Rain = 0
KWOS 240555Z 09008KT 20/05 A2993 RMK A01 T02020049  RH  037%=      5-min Rain = 0
KWOS 240600Z 09007KT 20/07 A2993 RMK A01 T02030072  RH  044%=      5-min Rain = 0
KWOS 240605Z 10007KT 20/08 A2993 RMK A01 T02010081  RH  047%=      5-min Rain = 0
KWOS 240610Z 10007KT 20/10 A2993 RMK A01 T02000097  RH  053%=      5-min Rain = 0
KWOS 240615Z 10007KT 20/11 A2993 RMK A01 T01990105  RH  056%=      5-min Rain = 0
KWOS 240620Z 10006KT 20/12 A2993 RMK A01 T01990116  RH  061%=      5-min Rain = 0
KWOS 240625Z 09006KT 20/12 A2993 RMK A01 T01990120  RH  063%=      5-min Rain = 0
KWOS 240630Z 10007KT 20/12 A2992 RMK A01 T01960117  RH  063%=      5-min Rain = 0
KWOS 240635Z 09004KT 20/12 A2992 RMK A01 T01990122  RH  064%=      5-min Rain = 0
KWOS 240640Z 11008KT 20/13 A2992 RMK A01 T01980126  RH  066%=      5-min Rain = 0
KWOS 240645Z 12008KT 20/13 A2992 RMK A01 T02010131  RH  066%=      5-min Rain = 0
KWOS 240650Z 12008KT 20/13 A2991 RMK A01 T02040134  RH  067%=      5-min Rain = 0
KWOS 240655Z 10008KT 21/13 A2991 RMK A01 T02050134  RH  066%=      5-min Rain = 0
KWOS 240700Z 09007KT 21/14 A2992 RMK A01 T02050135  RH  067%=      5-min Rain = 0
KWOS 240705Z 07007KT 20/13 A2992 RMK A01 T02000131  RH  067%=      5-min Rain = 0
KWOS 240710Z 07007KT 20/13 A2992 RMK A01 T01950128  RH  068%=      5-min Rain = 0
KWOS 240715Z 06007KT 19/13 A2992 RMK A01 T01930129  RH  069%=      5-min Rain = 0
KWOS 240720Z 07008KT 20/13 A2992 RMK A01 T01950133  RH  070%=      5-min Rain = 0
KWOS 240725Z 06008KT 20/13 A2992 RMK A01 T01970132  RH  069%=      5-min Rain = 0
KWOS 240730Z 07009KT 20/13 A2993 RMK A01 T01960134  RH  070%=      5-min Rain = 0
KWOS 240735Z 07010KT 20/14 A2993 RMK A01 T01990142  RH  073%=      5-min Rain = 0
KWOS 240740Z 07010KT 20/15 A2993 RMK A01 T01990146  RH  074%=      5-min Rain = 0
KWOS 240745Z 07009KT 20/15 A2993 RMK A01 T01990147  RH  075%=      5-min Rain = 0
KWOS 240750Z 06009KT 20/15 A2994 RMK A01 T01980146  RH  076%=      5-min Rain = 0
KWOS 240755Z 07009KT 20/15 A2994 RMK A01 T01970147  RH  076%=      5-min Rain = 0
KWOS 240800Z 08009KT 20/15 A2994 RMK A01 T01960149  RH  078%=      5-min Rain = 0
KWOS 240805Z 09010KT 20/15 A2994 RMK A01 T01960151  RH  079%=      5-min Rain = 0
KWOS 240810Z 08007KT 20/15 A2994 RMK A01 T01950151  RH  079%=      5-min Rain = 0
KWOS 240815Z 08010KT 20/16 A2994 RMK A01 T01980155  RH  080%=      5-min Rain = 0
KWOS 240820Z 08010KT 20/16 A2994 RMK A01 T01990156  RH  080%=      5-min Rain = 0
KWOS 240825Z 09010KT 20/16 A2994 RMK A01 T01970156  RH  081%=      5-min Rain = 0
KWOS 240830Z 08010KT 20/16 A2994 RMK A01 T01960157  RH  082%=      5-min Rain = 0
KWOS 240835Z 07010KT 20/16 A2994 RMK A01 T01960157  RH  082%=      5-min Rain = 0
KWOS 240840Z 07010KT 20/16 A2995 RMK A01 T01950157  RH  082%=      5-min Rain = 0
KWOS 240845Z 06011KT 19/16 A2995 RMK A01 T01940158  RH  083%=      5-min Rain = 0
KWOS 240850Z 07010KT 19/16 A2994 RMK A01 T01940159  RH  084%=      5-min Rain = 0
KWOS 240855Z 07009KT 19/16 A2994 RMK A01 T01930160  RH  086%=      5-min Rain = 0
KWOS 240900Z 07010KT 19/16 A2995 RMK A01 T01930161  RH  086%=      5-min Rain = 0
KWOS 240905Z 08010KT 19/16 A2995 RMK A01 T01930162  RH  086%=      5-min Rain = 0
KWOS 240910Z 08010KT 19/16 A2995 RMK A01 T01930162  RH  086%=      5-min Rain = 0
KWOS 240915Z 08010KT 19/16 A2995 RMK A01 T01930163  RH  087%=      5-min Rain = 0
KWOS 240920Z 08009KT 19/16 A2995 RMK A01 T01910162  RH  087%=      5-min Rain = 0
KWOS 240925Z 07010KT 19/16 A2995 RMK A01 T01920163  RH  087%=      5-min Rain = 0
KWOS 240930Z 07009KT 19/16 A2995 RMK A01 T01920163  RH  087%=      5-min Rain = 0
KWOS 240935Z 07009KT 19/16 A2995 RMK A01 T01910163  RH  088%=      5-min Rain = 0
KWOS 240940Z 07009KT 19/16 A2995 RMK A01 T01900163  RH  088%=      5-min Rain = 0
KWOS 240945Z 07009KT 19/16 A2995 RMK A01 T01900163  RH  088%=      5-min Rain = 0
KWOS 240950Z 07009KT 19/16 A2996 RMK A01 T01890162  RH  088%=      5-min Rain = 0
KWOS 240955Z 06011KT 19/16 A2996 RMK A01 T01910163  RH  088%=      5-min Rain = 0
KWOS 241000Z 07011KT 19/16 A2996 RMK A01 T01920163  RH  087%=      5-min Rain = 0
KWOS 241005Z 07012KT 19/16 A2996 RMK A01 T01920162  RH  086%=      5-min Rain = 0
KWOS 241010Z 07013KT 19/16 A2996 RMK A01 T01940160  RH  085%=      5-min Rain = 0
KWOS 241015Z 07012G17KT 20/16 A2996 RMK A01 T01950160  RH  084%=      5-min Rain = 0
KWOS 241020Z 07012G17KT 19/16 A2996 RMK A01 T01940159  RH  084%=      5-min Rain = 0
KWOS 241025Z 07013G18KT 20/16 A2996 RMK A01 T01950158  RH  083%=      5-min Rain = 0
KWOS 241030Z 07012KT 20/16 A2997 RMK A01 T01950159  RH  084%=      5-min Rain = 0
KWOS 241035Z 08012KT 19/16 A2997 RMK A01 T01940159  RH  085%=      5-min Rain = 0
KWOS 241040Z 07012G17KT 19/16 A2997 RMK A01 T01930160  RH  086%=      5-min Rain = 0
KWOS 241045Z 07013KT 19/16 A2997 RMK A01 T01920162  RH  086%=      5-min Rain = 0
KWOS 241050Z 07014KT 19/16 A2997 RMK A01 T01920163  RH  087%=      5-min Rain = 0
KWOS 241055Z 06014KT 19/16 A2997 RMK A01 T01930164  RH  087%=      5-min Rain = 0
KWOS 241100Z 07013KT 19/16 A2997 RMK A01 T01920164  RH  088%=      5-min Rain = 0
KWOS 241105Z 07015KT 19/16 A2997 RMK A01 T01920164  RH  088%=      5-min Rain = 0
KWOS 241110Z 07014KT 19/16 A2997 RMK A01 T01910164  RH  088%=      5-min Rain = 0
KWOS 241115Z 07013KT 19/16 A2997 RMK A01 T01900164  RH  089%=      5-min Rain = 0
KWOS 241120Z 07013G18KT 19/16 A2998 RMK A01 T01890163  RH  089%=      5-min Rain = 0
KWOS 241125Z 07012KT 19/16 A2998 RMK A01 T01880163  RH  090%=      5-min Rain = 0
KWOS 241130Z 06014G19KT 19/16 A2998 RMK A01 T01870163  RH  090%=      5-min Rain = 0
KWOS 241135Z 06015KT 19/16 A2998 RMK A01 T01870163  RH  090%=      5-min Rain = 0
KWOS 241140Z 07015G20KT 19/16 A2998 RMK A01 T01880163  RH  090%=      5-min Rain = 0
KWOS 241145Z 06015KT 19/16 A2998 RMK A01 T01880162  RH  090%=      5-min Rain = 0
KWOS 241150Z 06015KT 19/16 A2998 RMK A01 T01870162  RH  090%=      5-min Rain = 0
KWOS 241155Z 06014KT 19/16 A2998 RMK A01 T01870162  RH  090%=      5-min Rain = 0
KWOS 241200Z 06015KT 19/16 A2999 RMK A01 T01870162  RH  090%=      5-min Rain = 0
KWOS 241205Z 06015KT 19/16 A2999 RMK A01 T01870163  RH  090%=      5-min Rain = 0
KWOS 241210Z 06015KT 19/16 A2999 RMK A01 T01880163  RH  090%=      5-min Rain = 0
KWOS 241215Z 05013KT 19/16 A2999 RMK A01 T01890164  RH  090%=      5-min Rain = 0
KWOS 241220Z 05013KT 19/16 A30 RMK A01 T01890164  RH  090%=      5-min Rain = 0
KWOS 241225Z 05013KT 19/16 A30 RMK A01 T01890164  RH  090%=      5-min Rain = 0
KWOS 241230Z 05015KT 19/16 A30 RMK A01 T01910163  RH  088%=      5-min Rain = 0
KWOS 241235Z 05015KT 19/16 A30 RMK A01 T01910163  RH  088%=      5-min Rain = 0
KWOS 241240Z 05014KT 19/16 A30 RMK A01 T01920163  RH  087%=      5-min Rain = 0
KWOS 241245Z 05015KT 19/16 A3001 RMK A01 T01920162  RH  087%=      5-min Rain = 0
KWOS 241250Z 05014KT 19/16 A3001 RMK A01 T01930163  RH  087%=      5-min Rain = 0
KWOS 241255Z 06013KT 19/16 A3001 RMK A01 T01940163  RH  086%=      5-min Rain = 0
KWOS 241300Z 06014KT 20/16 A3001 RMK A01 T01960163  RH  085%=      5-min Rain = 0
KWOS 241305Z 06013KT 20/16 A3002 RMK A01 T01970163  RH  084%=      5-min Rain = 0
KWOS 241310Z 06015G20KT 20/16 A3002 RMK A01 T01980162  RH  084%=      5-min Rain = 0
KWOS 241315Z 07013KT 20/16 A3002 RMK A01 T02000163  RH  083%=      5-min Rain = 0
KWOS 241320Z 07013G18KT 20/16 A3002 RMK A01 T02020164  RH  082%=      5-min Rain = 0
KWOS 241325Z 07014KT 20/16 A3002 RMK A01 T02020163  RH  083%=      5-min Rain = 0
KWOS 241330Z 07015KT 20/16 A3002 RMK A01 T02020163  RH  082%=      5-min Rain = 0
KWOS 241335Z 07015KT 20/16 A3003 RMK A01 T02000163  RH  083%=      5-min Rain = 0
KWOS 241340Z 06014KT 20/16 A3003 RMK A01 T02020164  RH  083%=      5-min Rain = 0
KWOS 241345Z 07016KT 20/16 A3003 RMK A01 T02000163  RH  083%=      5-min Rain = 0
KWOS 241350Z 07013G18KT 20/16 A3003 RMK A01 T02040164  RH  082%=      5-min Rain = 0
KWOS 241355Z 07011G16KT 21/17 A3003 RMK A01 T02100165  RH  079%=      5-min Rain = 0
KWOS 241400Z 07013KT 21/16 A3003 RMK A01 T02110164  RH  078%=      5-min Rain = 0
KWOS 241405Z 07013G19KT 21/17 A3003 RMK A01 T02130165  RH  077%=      5-min Rain = 0
KWOS 241410Z 07013G19KT 22/16 A3003 RMK A01 T02150163  RH  076%=      5-min Rain = 0
KWOS 241415Z 07014KT 21/16 A3004 RMK A01 T02140162  RH  076%=      5-min Rain = 0
KWOS 241420Z 07013KT 22/16 A3004 RMK A01 T02150162  RH  076%=      5-min Rain = 0
KWOS 241425Z 07013KT 22/16 A3004 RMK A01 T02220163  RH  073%=      5-min Rain = 0
KWOS 241430Z 07013G19KT 22/16 A3004 RMK A01 T02200161  RH  073%=      5-min Rain = 0
KWOS 241435Z 08013G18KT 23/16 A3004 RMK A01 T02250161  RH  070%=      5-min Rain = 0
KWOS 241440Z 08012G20KT 23/16 A3004 RMK A01 T02280161  RH  069%=      5-min Rain = 0
KWOS 241445Z 08016KT 23/16 A3004 RMK A01 T02300160  RH  067%=      5-min Rain = 0
KWOS 241450Z 08013G19KT 23/16 A3004 RMK A01 T02300159  RH  067%=      5-min Rain = 0
KWOS 241455Z 07014G20KT 23/16 A3004 RMK A01 T02290159  RH  068%=      5-min Rain = 0
KWOS 241500Z 08014G19KT 23/16 A3004 RMK A01 T02320159  RH  067%=      5-min Rain = 0
KWOS 241505Z 09014G19KT 23/16 A3004 RMK A01 T02320159  RH  067%=      5-min Rain = 0
KWOS 241510Z 07014KT 23/16 A3004 RMK A01 T02340159  RH  066%=      5-min Rain = 0
KWOS 241515Z 08014KT 24/16 A3004 RMK A01 T02360160  RH  066%=      5-min Rain = 0
KWOS 241520Z 08014G19KT 24/16 A3003 RMK A01 T02370160  RH  065%=      5-min Rain = 0
KWOS 241525Z 08015G21KT 24/16 A3003 RMK A01 T02370160  RH  065%=      5-min Rain = 0
KWOS 241530Z 08014G19KT 24/16 A3003 RMK A01 T02380160  RH  065%=      5-min Rain = 0
KWOS 241535Z 08015KT 24/16 A3003 RMK A01 T02380160  RH  064%=      5-min Rain = 0
KWOS 241540Z 09015KT 24/16 A3003 RMK A01 T02400160  RH  064%=      5-min Rain = 0
KWOS 241545Z 07014G21KT 24/16 A3003 RMK A01 T02440161  RH  063%=      5-min Rain = 0
KWOS 241550Z 08013G18KT 25/16 A3003 RMK A01 T02480162  RH  062%=      5-min Rain = 0
KWOS 241555Z 08015KT 25/16 A3003 RMK A01 T02460161  RH  062%=      5-min Rain = 0
KWOS 241600Z 08014G22KT 25/16 A3003 RMK A01 T02510162  RH  061%=      5-min Rain = 0
KWOS 241605Z 09014G19KT 25/16 A3003 RMK A01 T02520161  RH  060%=      5-min Rain = 0
KWOS 241610Z 08014G19KT 26/16 A3002 RMK A01 T02550161  RH  059%=      5-min Rain = 0
KWOS 241615Z 08015G20KT 26/16 A3002 RMK A01 T02560161  RH  058%=      5-min Rain = 0
KWOS 241620Z 08014G20KT 26/16 A3002 RMK A01 T02560161  RH  058%=      5-min Rain = 0
KWOS 241625Z 09013G20KT 26/16 A3002 RMK A01 T02560161  RH  058%=      5-min Rain = 0
KWOS 241630Z 08013G18KT 26/16 A3002 RMK A01 T02610163  RH  057%=      5-min Rain = 0
KWOS 241635Z 10014G19KT 26/16 A3002 RMK A01 T02590162  RH  058%=      5-min Rain = 0
KWOS 241640Z 09013KT 26/16 A3002 RMK A01 T02590162  RH  057%=      5-min Rain = 0
KWOS 241645Z 08014G19KT 26/16 A3002 RMK A01 T02630162  RH  056%=      5-min Rain = 0
KWOS 241650Z 09013G18KT 26/16 A3002 RMK A01 T02630161  RH  056%=      5-min Rain = 0
KWOS 241655Z 08013G18KT 27/16 A3002 RMK A01 T02650162  RH  056%=      5-min Rain = 0
KWOS 241700Z 08012KT 27/16 A3003 RMK A01 T02680164  RH  056%=      5-min Rain = 0
KWOS 241705Z 09013G20KT 26/16 A3003 RMK A01 T02620163  RH  057%=      5-min Rain = 0
KWOS 241710Z 08011KT 26/16 A3003 RMK A01 T02620162  RH  057%=      5-min Rain = 0
KWOS 241715Z 10013KT 27/17 A3003 RMK A01 T02690165  RH  055%=      5-min Rain = 0
KWOS 241720Z 09010KT 27/16 A3002 RMK A01 T02680164  RH  056%=      5-min Rain = 0
KWOS 241725Z 08013KT 27/16 A3002 RMK A01 T02650162  RH  056%=      5-min Rain = 0
KWOS 241730Z 09010G15KT 27/16 A3002 RMK A01 T02680161  RH  055%=      5-min Rain = 0
KWOS 241735Z 10011KT 27/16 A3002 RMK A01 T02740162  RH  053%=      5-min Rain = 0
KWOS 241740Z 10008KT 27/16 A3002 RMK A01 T02740160  RH  052%=      5-min Rain = 0
KWOS 241745Z 09009KT 28/16 A3002 RMK A01 T02750159  RH  052%=      5-min Rain = 0
KWOS 241750Z 11012G19KT 28/16 A3001 RMK A01 T02770161  RH  052%=      5-min Rain = 0
KWOS 241755Z 11010KT 28/16 A3001 RMK A01 T02800162  RH  051%=      5-min Rain = 0
KWOS 241800Z 11011G16KT 28/16 A3001 RMK A01 T02800159  RH  050%=      5-min Rain = 0
KWOS 241805Z 09012KT 28/16 A3001 RMK A01 T02800159  RH  050%=      5-min Rain = 0
KWOS 241810Z 12011KT 28/16 A3001 RMK A01 T02830158  RH  049%=      5-min Rain = 0
KWOS 241815Z 10008G13KT 28/15 A3001 RMK A01 T02820154  RH  048%=      5-min Rain = 0
KWOS 241820Z 08011G17KT 28/16 A3001 RMK A01 T02820160  RH  050%=      5-min Rain = 0
KWOS 241825Z 09008G15KT 29/16 A3001 RMK A01 T02860160  RH  049%=      5-min Rain = 0
KWOS 241830Z 08010KT 29/16 A30 RMK A01 T02870161  RH  049%=      5-min Rain = 0
KWOS 241835Z 12010G15KT 29/16 A30 RMK A01 T02880158  RH  047%=      5-min Rain = 0
KWOS 241840Z 12008G14KT 29/16 A30 RMK A01 T02880157  RH  047%=      5-min Rain = 0
KWOS 241845Z 08012G17KT 29/16 A30 RMK A01 T02910161  RH  047%=      5-min Rain = 0
KWOS 241850Z 10010KT 29/16 A30 RMK A01 T02900157  RH  047%=      5-min Rain = 0
KWOS 241855Z 07008KT 29/16 A30 RMK A01 T02900155  RH  046%=      5-min Rain = 0
KWOS 241900Z 09008G17KT 29/16 A30 RMK A01 T02920159  RH  047%=      5-min Rain = 0
KWOS 241905Z 08005G11KT 29/16 A30 RMK A01 T02930159  RH  046%=      5-min Rain = 0
KWOS 241910Z 10006KT 29/16 A2999 RMK A01 T02940155  RH  045%=      5-min Rain = 0
KWOS 241915Z 12008KT 30/16 A2999 RMK A01 T02980157  RH  045%=      5-min Rain = 0
KWOS 241920Z 10007KT 30/16 A2999 RMK A01 T03000157  RH  044%=      5-min Rain = 0
KWOS 241925Z 10009G14KT 30/15 A2999 RMK A01 T02980154  RH  043%=      5-min Rain = 0
KWOS 241930Z 10006G11KT 30/15 A2999 RMK A01 T03020152  RH  042%=      5-min Rain = 0
KWOS 241935Z 10011KT 30/16 A2999 RMK A01 T03040159  RH  044%=      5-min Rain = 0
KWOS 241940Z 07009KT 31/16 A2998 RMK A01 T03050159  RH  043%=      5-min Rain = 0
KWOS 241945Z 08009G14KT 31/16 A2998 RMK A01 T03080160  RH  043%=      5-min Rain = 0
KWOS 241950Z 12010G15KT 31/15 A2998 RMK A01 T03120154  RH  040%=      5-min Rain = 0
KWOS 241955Z 12010KT 31/15 A2997 RMK A01 T03090150  RH  040%=      5-min Rain = 0
KWOS 242000Z 10009G15KT 31/15 A2997 RMK A01 T03070151  RH  041%=      5-min Rain = 0
KWOS 242005Z 10006G14KT 31/15 A2997 RMK A01 T03100150  RH  040%=      5-min Rain = 0
KWOS 242010Z 13009G15KT 31/15 A2997 RMK A01 T03140146  RH  038%=      5-min Rain = 0
KWOS 242015Z 10009G14KT 31/15 A2997 RMK A01 T03120149  RH  039%=      5-min Rain = 0
KWOS 242020Z 12010KT 31/15 A2996 RMK A01 T03130149  RH  039%=      5-min Rain = 0
KWOS 242025Z 13008G18KT 31/14 A2996 RMK A01 T03140141  RH  037%=      5-min Rain = 0
KWOS 242030Z 14008G14KT 32/14 A2996 RMK A01 T03170139  RH  035%=      5-min Rain = 0
KWOS 242035Z 14007G13KT 31/14 A2996 RMK A01 T03120142  RH  037%=      5-min Rain = 0
KWOS 242040Z 14009G14KT 31/14 A2996 RMK A01 T03110144  RH  038%=      5-min Rain = 0
KWOS 242045Z 16006G11KT 31/14 A2996 RMK A01 T03130141  RH  037%=      5-min Rain = 0
KWOS 242050Z 12007G13KT 31/14 A2996 RMK A01 T03110144  RH  038%=      5-min Rain = 0
KWOS 242055Z 11010G15KT 32/15 A2995 RMK A01 T03180150  RH  038%=      5-min Rain = 0
KWOS 242100Z 12006KT 32/15 A2995 RMK A01 T03160150  RH  038%=      5-min Rain = 0
KWOS 242105Z 15008G14KT 32/15 A2995 RMK A01 T03200151  RH  038%=      5-min Rain = 0
KWOS 242110Z 09004G10KT 32/15 A2995 RMK A01 T03160148  RH  038%=      5-min Rain = 0
KWOS 242115Z 10007G13KT 31/15 A2995 RMK A01 T03130149  RH  039%=      5-min Rain = 0
KWOS 242120Z 13008G13KT 31/15 A2995 RMK A01 T03140151  RH  039%=      5-min Rain = 0
KWOS 242125Z 12005G11KT 32/15 A2994 RMK A01 T03150149  RH  038%=      5-min Rain = 0
KWOS 242130Z 09004G10KT 32/15 A2994 RMK A01 T03170147  RH  037%=      5-min Rain = 0
KWOS 242135Z 11007G13KT 32/15 A2994 RMK A01 T03180148  RH  037%=      5-min Rain = 0
KWOS 242140Z 10009G16KT 31/15 A2994 RMK A01 T03080148  RH  040%=      5-min Rain = 0
KWOS 242145Z 13009G16KT 30/15 A2993 RMK A01 T03030147  RH  041%=      5-min Rain = 0
KWOS 242150Z 14004G10KT 31/15 A2993 RMK A01 T03140152  RH  039%=      5-min Rain = 0
KWOS 242155Z 14005KT 33/15 A2993 RMK A01 T03250150  RH  036%=      5-min Rain = 0
KWOS 242200Z 06004KT 32/15 A2992 RMK A01 T03210148  RH  037%=      5-min Rain = 0
KWOS 242205Z 11005G10KT 32/15 A2992 RMK A01 T03190149  RH  037%=      5-min Rain = 0
KWOS 242210Z 11002KT 32/15 A2992 RMK A01 T03190150  RH  038%=      5-min Rain = 0
KWOS 242215Z 16007KT 32/15 A2992 RMK A01 T03200149  RH  037%=      5-min Rain = 0
KWOS 242220Z 16003G8KT 32/15 A2991 RMK A01 T03220147  RH  036%=      5-min Rain = 0
KWOS 242225Z 09003KT 32/15 A2991 RMK A01 T03230148  RH  036%=      5-min Rain = 0
KWOS 242230Z 13007KT 33/15 A2991 RMK A01 T03270149  RH  036%=      5-min Rain = 0
KWOS 242235Z 13006KT 32/15 A2991 RMK A01 T03210145  RH  036%=      5-min Rain = 0
KWOS 242240Z 13003KT 31/14 A2991 RMK A01 T03120144  RH  038%=      5-min Rain = 0
KWOS 242245Z 10001G6KT 32/15 A2991 RMK A01 T03180145  RH  037%=      5-min Rain = 0
KWOS 242250Z 11004G11KT 33/15 A2991 RMK A01 T03250146  RH  036%=      5-min Rain = 0
KWOS 242255Z 14006G11KT 32/15 A299 RMK A01 T03230148  RH  036%=      5-min Rain = 0
KWOS 242300Z 11009KT 31/15 A2991 RMK A01 T03120153  RH  040%=      5-min Rain = 0
KWOS 242305Z 13007KT 31/15 A299 RMK A01 T03080153  RH  041%=      5-min Rain = 0
KWOS 242310Z 13006KT 31/15 A299 RMK A01 T03080153  RH  041%=      5-min Rain = 0
KWOS 242315Z 13006KT 32/15 A2989 RMK A01 T03200153  RH  038%=      5-min Rain = 0
KWOS 242320Z 10007KT 32/15 A2989 RMK A01 T03170150  RH  038%=      5-min Rain = 0
KWOS 242325Z 10008KT 31/15 A2989 RMK A01 T03070150  RH  040%=      5-min Rain = 0
KWOS 242330Z 10007KT 31/15 A2989 RMK A01 T03050150  RH  041%=      5-min Rain = 0
KWOS 242335Z 10006KT 30/15 A2989 RMK A01 T03040149  RH  041%=      5-min Rain = 0
KWOS 242340Z 12004KT 31/15 A2988 RMK A01 T03070151  RH  041%=      5-min Rain = 0
KWOS 242345Z 09008KT 31/15 A2988 RMK A01 T03080151  RH  040%=      5-min Rain = 0
KWOS 242350Z 11008KT 31/15 A2988 RMK A01 T03100152  RH  040%=      5-min Rain = 0
KWOS 242355Z 15009G14KT 32/15 A2987 RMK A01 T03170153  RH  039%=      5-min Rain = 0
KWOS 250000Z 12009G14KT 31/16 A2987 RMK A01 T03120158  RH  041%=      5-min Rain = 0
KWOS 250005Z 11011G17KT 31/16 A2987 RMK A01 T03070159  RH  043%=      5-min Rain = 0
KWOS 250010Z 12008KT 30/16 A2986 RMK A01 T03030158  RH  044%=      5-min Rain = 0
KWOS 250015Z 14008KT 31/15 A2987 RMK A01 T03060154  RH  042%=      5-min Rain = 0
KWOS 250020Z 14014G23KT 30/16 A2988 RMK A01 T03030156  RH  043%=      5-min Rain = 0
KWOS 250025Z 15017G28KT 28/16 A2988 RMK A01 T02830160  RH  050%=      5-min Rain = 0
KWOS 250030Z 14019G25KT 27/15 A2988 RMK A01 T02660148  RH  050%=      5-min Rain = 0
KWOS 250035Z 13016G26KT 25/13 A2988 RMK A01 T02540127  RH  047%=      5-min Rain = 0
KWOS 250040Z 13016G21KT 25/12 A2988 RMK A01 T02500123  RH  047%=      5-min Rain = 0
KWOS 250045Z 09013G18KT 25/13 A2991 RMK A01 T02510133  RH  050%=      5-min Rain = 0
KWOS 250050Z 06019G25KT 25/13 A2992 RMK A01 T02530131  RH  049%=      5-min Rain = 0
KWOS 250055Z 06016G22KT 25/12 A2994 RMK A01 T02530116  RH  044%=      5-min Rain = 0
KWOS 250100Z 06017G25KT 26/13 A2994 RMK A01 T02590126  RH  045%=      5-min Rain = 0
KWOS 250105Z 05021G27KT 25/15 A2993 RMK A01 T02500147  RH  056%=      5-min Rain = 0
KWOS 250110Z 06021G27KT 23/16 A2993 RMK A01 T02330158  RH  066%=      5-min Rain = 0
KWOS 250115Z 06020G28KT 23/16 A2993 RMK A01 T02290163  RH  070%=      5-min Rain = 0
KWOS 250120Z 06020G27KT 23/16 A2994 RMK A01 T02280162  RH  070%=      5-min Rain = 0
KWOS 250125Z 07020KT 23/16 A2994 RMK A01 T02300155  RH  065%=      5-min Rain = 0
KWOS 250130Z 07017G22KT 23/15 A2993 RMK A01 T02330152  RH  063%=      5-min Rain = 0
KWOS 250135Z 08015KT 23/15 A2993 RMK A01 T02330145  RH  060%=      5-min Rain = 0
KWOS 250140Z 08015KT 23/14 A2992 RMK A01 T02330141  RH  058%=      5-min Rain = 0
KWOS 250145Z 09014KT 24/13 A2992 RMK A01 T02350131  RH  054%=      5-min Rain = 0
KWOS 250150Z 08013G18KT 24/13 A2993 RMK A01 T02350132  RH  054%=      5-min Rain = 0
KWOS 250155Z 07015G20KT 24/14 A2993 RMK A01 T02360137  RH  056%=      5-min Rain = 0
KWOS 250200Z 08014G19KT 24/14 A2993 RMK A01 T02350139  RH  057%=      5-min Rain = 0
KWOS 250205Z 09014G20KT 24/15 A2993 RMK A01 T02350145  RH  060%=      5-min Rain = 0
KWOS 250210Z 09013G18KT 24/17 A2993 RMK A01 T02370166  RH  068%=      5-min Rain = 0
KWOS 250215Z 08014KT 24/18 A2993 RMK A01 T02380176  RH  072%=      5-min Rain = 0
KWOS 250220Z 08014G21KT 24/18 A2992 RMK A01 T02400180  RH  073%=      5-min Rain = 0
KWOS 250225Z 09016KT 24/18 A2992 RMK A01 T02400182  RH  073%=      5-min Rain = 0
KWOS 250230Z 10014G19KT 24/18 A2992 RMK A01 T02390182  RH  074%=      5-min Rain = 0
KWOS 250235Z 10013G18KT 24/18 A2992 RMK A01 T02380180  RH  074%=      5-min Rain = 0
KWOS 250240Z 10012KT 24/18 A2992 RMK A01 T02370181  RH  075%=      5-min Rain = 0
KWOS 250245Z 11012KT 24/18 A2992 RMK A01 T02350180  RH  075%=      5-min Rain = 0
KWOS 250250Z 11012KT 24/18 A2993 RMK A01 T02350180  RH  075%=      5-min Rain = 0
KWOS 250255Z 12012G17KT 24/18 A2993 RMK A01 T02350181  RH  076%=      5-min Rain = 0
KWOS 250300Z 11012G17KT 23/18 A2993 RMK A01 T02340184  RH  078%=      5-min Rain = 0
KWOS 250305Z 11014G20KT 24/19 A2994 RMK A01 T02350187  RH  079%=      5-min Rain = 0
KWOS 250310Z 11015G21KT 24/19 A2994 RMK A01 T02350189  RH  080%=      5-min Rain = 0
KWOS 250315Z 12015KT 23/19 A2994 RMK A01 T02330189  RH  080%=      5-min Rain = 0
KWOS 250320Z 12015G20KT 23/19 A2995 RMK A01 T02310188  RH  081%=      5-min Rain = 0
KWOS 250325Z 12014G19KT 23/19 A2995 RMK A01 T02300187  RH  081%=      5-min Rain = 0
KWOS 250330Z 12014G19KT 23/19 A2995 RMK A01 T02300187  RH  081%=      5-min Rain = 0
KWOS 250335Z 12014KT 23/19 A2996 RMK A01 T02300187  RH  081%=      5-min Rain = 0
KWOS 250340Z 12014G19KT 23/19 A2997 RMK A01 T02300187  RH  081%=      5-min Rain = 0
KWOS 250345Z 12013G18KT 23/19 A2997 RMK A01 T02300186  RH  081%=      5-min Rain = 0
KWOS 250350Z 12013G18KT 23/19 A2997 RMK A01 T02290186  RH  081%=      5-min Rain = 0
KWOS 250355Z 12014KT 23/19 A2997 RMK A01 T02280186  RH  081%=      5-min Rain = 0
KWOS 250400Z 12012KT 23/18 A2997 RMK A01 T02280180  RH  079%=      5-min Rain = 0
KWOS 250405Z 12012KT 23/18 A2997 RMK A01 T02280175  RH  076%=      5-min Rain = 0
KWOS 250410Z 12012KT 23/17 A2998 RMK A01 T02290171  RH  074%=      5-min Rain = 0
KWOS 250415Z 12010G15KT 23/17 A2998 RMK A01 T02270170  RH  074%=      5-min Rain = 0
KWOS 250420Z 12011KT 23/17 A2998 RMK A01 T02250169  RH  075%=      5-min Rain = 0
KWOS 250425Z 12011KT 22/17 A2998 RMK A01 T02240170  RH  075%=      5-min Rain = 0
KWOS 250430Z 13011KT 22/17 A2999 RMK A01 T02240172  RH  076%=      5-min Rain = 0
KWOS 250435Z 13010KT 22/17 A2998 RMK A01 T02230174  RH  078%=      5-min Rain = 0
KWOS 250440Z 13010KT 22/18 A2998 RMK A01 T02230176  RH  079%=      5-min Rain = 0
KWOS 250445Z 14010KT 22/18 A2998 RMK A01 T02220176  RH  079%=      5-min Rain = 0
KWOS 250450Z 14010KT 22/18 A2998 RMK A01 T02230177  RH  079%=      5-min Rain = 0
KWOS 250455Z 13010KT 22/18 A2998 RMK A01 T02230177  RH  079%=      5-min Rain = 0

Page generated in 0.0091 seconds.